sensor_id;sensor_type;location;lat;lon;timestamp;P1;durP1;ratioP1;P2;durP2;ratioP2
36629;SDS011;36256;42.154;23.002;2022-10-23T00:01:09;19.50;;;13.95;;
36629;SDS011;36256;42.154;23.002;2022-10-23T00:03:37;21.95;;;13.35;;
36629;SDS011;36256;42.154;23.002;2022-10-23T00:06:04;16.88;;;13.18;;
36629;SDS011;36256;42.154;23.002;2022-10-23T00:08:31;17.63;;;13.27;;
36629;SDS011;36256;42.154;23.002;2022-10-23T00:10:57;18.57;;;13.60;;
36629;SDS011;36256;42.154;23.002;2022-10-23T00:13:24;19.75;;;13.82;;
36629;SDS011;36256;42.154;23.002;2022-10-23T00:15:51;17.10;;;14.13;;
36629;SDS011;36256;42.154;23.002;2022-10-23T00:18:22;18.63;;;13.93;;
36629;SDS011;36256;42.154;23.002;2022-10-23T00:20:48;17.80;;;13.43;;
36629;SDS011;36256;42.154;23.002;2022-10-23T00:23:15;20.17;;;13.17;;
36629;SDS011;36256;42.154;23.002;2022-10-23T00:25:42;20.05;;;13.70;;
36629;SDS011;36256;42.154;23.002;2022-10-23T00:28:09;19.60;;;14.33;;
36629;SDS011;36256;42.154;23.002;2022-10-23T00:30:36;18.08;;;14.18;;
36629;SDS011;36256;42.154;23.002;2022-10-23T00:33:02;18.27;;;14.33;;
36629;SDS011;36256;42.154;23.002;2022-10-23T00:35:29;18.50;;;14.53;;
36629;SDS011;36256;42.154;23.002;2022-10-23T00:37:55;21.97;;;15.27;;
36629;SDS011;36256;42.154;23.002;2022-10-23T00:40:22;20.63;;;13.87;;
36629;SDS011;36256;42.154;23.002;2022-10-23T00:42:48;19.77;;;14.07;;
36629;SDS011;36256;42.154;23.002;2022-10-23T00:47:52;19.05;;;12.68;;
36629;SDS011;36256;42.154;23.002;2022-10-23T00:50:20;18.25;;;13.55;;
36629;SDS011;36256;42.154;23.002;2022-10-23T00:52:49;18.85;;;13.30;;
36629;SDS011;36256;42.154;23.002;2022-10-23T00:55:18;18.80;;;13.35;;
36629;SDS011;36256;42.154;23.002;2022-10-23T00:57:47;16.75;;;13.77;;
36629;SDS011;36256;42.154;23.002;2022-10-23T01:00:17;20.33;;;13.75;;
36629;SDS011;36256;42.154;23.002;2022-10-23T01:02:54;21.83;;;13.65;;
36629;SDS011;36256;42.154;23.002;2022-10-23T01:05:35;20.83;;;14.50;;
36629;SDS011;36256;42.154;23.002;2022-10-23T01:08:15;20.95;;;15.23;;
36629;SDS011;36256;42.154;23.002;2022-10-23T01:10:52;20.20;;;15.65;;
36629;SDS011;36256;42.154;23.002;2022-10-23T01:16:10;18.38;;;14.07;;
36629;SDS011;36256;42.154;23.002;2022-10-23T01:18:54;17.15;;;13.23;;
36629;SDS011;36256;42.154;23.002;2022-10-23T01:24:49;21.70;;;15.45;;
36629;SDS011;36256;42.154;23.002;2022-10-23T01:27:31;21.47;;;15.83;;
36629;SDS011;36256;42.154;23.002;2022-10-23T01:30:14;20.58;;;14.45;;
36629;SDS011;36256;42.154;23.002;2022-10-23T01:32:52;17.63;;;13.43;;
36629;SDS011;36256;42.154;23.002;2022-10-23T01:35:23;18.10;;;14.30;;
36629;SDS011;36256;42.154;23.002;2022-10-23T01:38:00;17.70;;;14.10;;
36629;SDS011;36256;42.154;23.002;2022-10-23T01:40:33;19.40;;;14.15;;
36629;SDS011;36256;42.154;23.002;2022-10-23T01:43:10;18.52;;;14.98;;
36629;SDS011;36256;42.154;23.002;2022-10-23T01:45:42;22.70;;;16.23;;
36629;SDS011;36256;42.154;23.002;2022-10-23T01:48:13;21.23;;;14.70;;
36629;SDS011;36256;42.154;23.002;2022-10-23T01:50:43;19.25;;;14.75;;
36629;SDS011;36256;42.154;23.002;2022-10-23T01:53:11;18.98;;;14.90;;
36629;SDS011;36256;42.154;23.002;2022-10-23T01:55:38;19.00;;;15.20;;
36629;SDS011;36256;42.154;23.002;2022-10-23T01:58:12;19.70;;;15.10;;
36629;SDS011;36256;42.154;23.002;2022-10-23T02:00:41;19.75;;;13.90;;
36629;SDS011;36256;42.154;23.002;2022-10-23T02:03:10;22.10;;;13.73;;
36629;SDS011;36256;42.154;23.002;2022-10-23T02:05:40;20.38;;;14.25;;
36629;SDS011;36256;42.154;23.002;2022-10-23T02:08:09;20.50;;;15.57;;
36629;SDS011;36256;42.154;23.002;2022-10-23T02:10:40;20.60;;;15.85;;
36629;SDS011;36256;42.154;23.002;2022-10-23T02:13:23;21.50;;;15.95;;
36629;SDS011;36256;42.154;23.002;2022-10-23T02:18:50;21.67;;;16.40;;
36629;SDS011;36256;42.154;23.002;2022-10-23T02:21:50;22.17;;;16.77;;
36629;SDS011;36256;42.154;23.002;2022-10-23T02:24:37;28.08;;;16.92;;
36629;SDS011;36256;42.154;23.002;2022-10-23T02:27:12;22.77;;;15.55;;
36629;SDS011;36256;42.154;23.002;2022-10-23T02:29:44;20.27;;;15.70;;
36629;SDS011;36256;42.154;23.002;2022-10-23T02:32:16;22.15;;;15.77;;
36629;SDS011;36256;42.154;23.002;2022-10-23T02:34:45;23.65;;;15.80;;
36629;SDS011;36256;42.154;23.002;2022-10-23T02:37:13;26.02;;;16.15;;
36629;SDS011;36256;42.154;23.002;2022-10-23T02:39:40;22.33;;;15.90;;
36629;SDS011;36256;42.154;23.002;2022-10-23T02:42:13;25.73;;;16.58;;
36629;SDS011;36256;42.154;23.002;2022-10-23T02:44:45;26.35;;;17.15;;
36629;SDS011;36256;42.154;23.002;2022-10-23T02:47:19;28.75;;;16.88;;
36629;SDS011;36256;42.154;23.002;2022-10-23T02:55:13;24.45;;;16.95;;
36629;SDS011;36256;42.154;23.002;2022-10-23T02:57:50;26.15;;;17.35;;
36629;SDS011;36256;42.154;23.002;2022-10-23T03:00:21;27.75;;;19.08;;
36629;SDS011;36256;42.154;23.002;2022-10-23T03:02:58;28.85;;;19.00;;
36629;SDS011;36256;42.154;23.002;2022-10-23T03:05:30;34.30;;;19.98;;
36629;SDS011;36256;42.154;23.002;2022-10-23T03:08:02;30.75;;;19.02;;
36629;SDS011;36256;42.154;23.002;2022-10-23T03:10:30;30.63;;;19.63;;
36629;SDS011;36256;42.154;23.002;2022-10-23T03:12:57;29.65;;;18.98;;
36629;SDS011;36256;42.154;23.002;2022-10-23T03:15:24;27.00;;;19.00;;
36629;SDS011;36256;42.154;23.002;2022-10-23T03:17:50;33.53;;;21.60;;
36629;SDS011;36256;42.154;23.002;2022-10-23T03:20:17;31.07;;;20.27;;
36629;SDS011;36256;42.154;23.002;2022-10-23T03:22:44;32.03;;;19.80;;
36629;SDS011;36256;42.154;23.002;2022-10-23T03:25:11;28.63;;;19.60;;
36629;SDS011;36256;42.154;23.002;2022-10-23T03:27:37;29.63;;;20.33;;
36629;SDS011;36256;42.154;23.002;2022-10-23T03:30:04;36.60;;;20.13;;
36629;SDS011;36256;42.154;23.002;2022-10-23T03:32:32;24.70;;;18.50;;
36629;SDS011;36256;42.154;23.002;2022-10-23T03:34:59;34.13;;;20.05;;
36629;SDS011;36256;42.154;23.002;2022-10-23T03:37:25;29.65;;;19.77;;
36629;SDS011;36256;42.154;23.002;2022-10-23T03:39:52;27.50;;;19.60;;
36629;SDS011;36256;42.154;23.002;2022-10-23T03:42:18;30.10;;;18.90;;
36629;SDS011;36256;42.154;23.002;2022-10-23T03:44:45;31.03;;;20.30;;
36629;SDS011;36256;42.154;23.002;2022-10-23T03:47:11;27.20;;;19.60;;
36629;SDS011;36256;42.154;23.002;2022-10-23T03:49:38;27.52;;;17.83;;
36629;SDS011;36256;42.154;23.002;2022-10-23T03:52:05;34.10;;;18.33;;
36629;SDS011;36256;42.154;23.002;2022-10-23T03:54:33;27.83;;;18.83;;
36629;SDS011;36256;42.154;23.002;2022-10-23T03:57:00;24.98;;;18.48;;
36629;SDS011;36256;42.154;23.002;2022-10-23T03:59:27;26.52;;;18.38;;
36629;SDS011;36256;42.154;23.002;2022-10-23T04:01:53;26.48;;;18.13;;
36629;SDS011;36256;42.154;23.002;2022-10-23T04:04:20;27.98;;;17.83;;
36629;SDS011;36256;42.154;23.002;2022-10-23T04:06:47;28.70;;;17.92;;
36629;SDS011;36256;42.154;23.002;2022-10-23T04:09:14;27.50;;;17.00;;
36629;SDS011;36256;42.154;23.002;2022-10-23T04:11:40;28.17;;;18.13;;
36629;SDS011;36256;42.154;23.002;2022-10-23T04:14:09;25.80;;;17.67;;
36629;SDS011;36256;42.154;23.002;2022-10-23T04:16:37;25.60;;;17.70;;
36629;SDS011;36256;42.154;23.002;2022-10-23T04:19:04;27.13;;;17.63;;
36629;SDS011;36256;42.154;23.002;2022-10-23T04:21:30;26.48;;;17.55;;
36629;SDS011;36256;42.154;23.002;2022-10-23T04:23:57;27.67;;;17.23;;
36629;SDS011;36256;42.154;23.002;2022-10-23T04:26:23;25.70;;;17.67;;
36629;SDS011;36256;42.154;23.002;2022-10-23T04:28:50;27.87;;;18.97;;
36629;SDS011;36256;42.154;23.002;2022-10-23T04:31:17;28.95;;;18.80;;
36629;SDS011;36256;42.154;23.002;2022-10-23T04:33:44;32.88;;;19.35;;
36629;SDS011;36256;42.154;23.002;2022-10-23T04:36:11;26.45;;;18.90;;
36629;SDS011;36256;42.154;23.002;2022-10-23T04:38:38;24.58;;;18.00;;
36629;SDS011;36256;42.154;23.002;2022-10-23T04:41:04;26.60;;;17.57;;
36629;SDS011;36256;42.154;23.002;2022-10-23T04:43:31;26.80;;;18.33;;
36629;SDS011;36256;42.154;23.002;2022-10-23T04:45:57;28.70;;;20.37;;
36629;SDS011;36256;42.154;23.002;2022-10-23T04:48:24;33.65;;;19.58;;
36629;SDS011;36256;42.154;23.002;2022-10-23T04:50:55;29.70;;;19.33;;
36629;SDS011;36256;42.154;23.002;2022-10-23T04:53:22;29.98;;;19.80;;
36629;SDS011;36256;42.154;23.002;2022-10-23T04:58:17;28.98;;;20.58;;
36629;SDS011;36256;42.154;23.002;2022-10-23T05:00:44;35.50;;;21.02;;
36629;SDS011;36256;42.154;23.002;2022-10-23T05:03:11;46.72;;;25.88;;
36629;SDS011;36256;42.154;23.002;2022-10-23T05:05:38;36.35;;;23.45;;
36629;SDS011;36256;42.154;23.002;2022-10-23T05:08:06;56.00;;;30.02;;
36629;SDS011;36256;42.154;23.002;2022-10-23T05:10:32;48.97;;;24.67;;
36629;SDS011;36256;42.154;23.002;2022-10-23T05:12:59;57.60;;;31.45;;
36629;SDS011;36256;42.154;23.002;2022-10-23T05:15:26;45.63;;;29.02;;
36629;SDS011;36256;42.154;23.002;2022-10-23T05:17:54;54.47;;;30.17;;
36629;SDS011;36256;42.154;23.002;2022-10-23T05:20:26;53.95;;;30.42;;
36629;SDS011;36256;42.154;23.002;2022-10-23T05:22:56;39.95;;;24.60;;
36629;SDS011;36256;42.154;23.002;2022-10-23T05:25:25;33.78;;;22.83;;
36629;SDS011;36256;42.154;23.002;2022-10-23T05:27:52;35.07;;;22.60;;
36629;SDS011;36256;42.154;23.002;2022-10-23T05:30:18;32.53;;;19.53;;
36629;SDS011;36256;42.154;23.002;2022-10-23T05:32:45;36.67;;;22.60;;
36629;SDS011;36256;42.154;23.002;2022-10-23T05:35:13;35.17;;;24.10;;
36629;SDS011;36256;42.154;23.002;2022-10-23T05:37:44;36.85;;;24.80;;
36629;SDS011;36256;42.154;23.002;2022-10-23T05:40:13;39.25;;;25.77;;
36629;SDS011;36256;42.154;23.002;2022-10-23T05:42:39;38.13;;;23.00;;
36629;SDS011;36256;42.154;23.002;2022-10-23T05:45:07;35.65;;;22.83;;
36629;SDS011;36256;42.154;23.002;2022-10-23T05:50:00;35.00;;;21.35;;
36629;SDS011;36256;42.154;23.002;2022-10-23T05:52:27;29.90;;;20.97;;
36629;SDS011;36256;42.154;23.002;2022-10-23T05:54:54;32.53;;;21.23;;
36629;SDS011;36256;42.154;23.002;2022-10-23T05:57:20;30.67;;;20.80;;
36629;SDS011;36256;42.154;23.002;2022-10-23T05:59:47;48.17;;;32.83;;
36629;SDS011;36256;42.154;23.002;2022-10-23T06:02:13;46.57;;;31.10;;
36629;SDS011;36256;42.154;23.002;2022-10-23T06:04:40;44.40;;;29.57;;
36629;SDS011;36256;42.154;23.002;2022-10-23T06:07:06;36.20;;;24.63;;
36629;SDS011;36256;42.154;23.002;2022-10-23T06:09:33;35.17;;;23.43;;
36629;SDS011;36256;42.154;23.002;2022-10-23T06:12:00;27.97;;;19.67;;
36629;SDS011;36256;42.154;23.002;2022-10-23T06:14:27;26.85;;;18.38;;
36629;SDS011;36256;42.154;23.002;2022-10-23T06:16:54;25.27;;;17.37;;
36629;SDS011;36256;42.154;23.002;2022-10-23T06:19:21;25.07;;;17.77;;
36629;SDS011;36256;42.154;23.002;2022-10-23T06:21:47;27.17;;;18.80;;
36629;SDS011;36256;42.154;23.002;2022-10-23T06:24:14;29.63;;;18.17;;
36629;SDS011;36256;42.154;23.002;2022-10-23T06:26:40;23.57;;;18.00;;
36629;SDS011;36256;42.154;23.002;2022-10-23T06:29:07;35.90;;;23.60;;
36629;SDS011;36256;42.154;23.002;2022-10-23T06:31:33;21.67;;;14.55;;
36629;SDS011;36256;42.154;23.002;2022-10-23T06:34:00;25.07;;;18.70;;
36629;SDS011;36256;42.154;23.002;2022-10-23T06:36:26;24.43;;;18.03;;
36629;SDS011;36256;42.154;23.002;2022-10-23T06:38:53;20.98;;;16.67;;
36629;SDS011;36256;42.154;23.002;2022-10-23T06:41:21;28.15;;;17.38;;
36629;SDS011;36256;42.154;23.002;2022-10-23T06:43:49;22.13;;;17.10;;
36629;SDS011;36256;42.154;23.002;2022-10-23T06:46:17;35.38;;;21.27;;
36629;SDS011;36256;42.154;23.002;2022-10-23T06:48:44;37.65;;;21.70;;
36629;SDS011;36256;42.154;23.002;2022-10-23T06:51:11;26.67;;;17.60;;
36629;SDS011;36256;42.154;23.002;2022-10-23T06:53:39;20.75;;;16.60;;
36629;SDS011;36256;42.154;23.002;2022-10-23T06:56:07;29.30;;;18.20;;
36629;SDS011;36256;42.154;23.002;2022-10-23T06:58:34;26.17;;;17.65;;
36629;SDS011;36256;42.154;23.002;2022-10-23T07:01:03;49.00;;;31.65;;
36629;SDS011;36256;42.154;23.002;2022-10-23T07:03:32;48.70;;;35.20;;
36629;SDS011;36256;42.154;23.002;2022-10-23T07:06:03;35.15;;;24.17;;
36629;SDS011;36256;42.154;23.002;2022-10-23T07:08:32;22.67;;;15.23;;
36629;SDS011;36256;42.154;23.002;2022-10-23T07:11:02;21.65;;;14.52;;
36629;SDS011;36256;42.154;23.002;2022-10-23T07:13:34;24.73;;;15.10;;
36629;SDS011;36256;42.154;23.002;2022-10-23T07:16:15;20.33;;;14.95;;
36629;SDS011;36256;42.154;23.002;2022-10-23T07:18:43;22.60;;;16.33;;
36629;SDS011;36256;42.154;23.002;2022-10-23T07:21:11;24.73;;;16.85;;
36629;SDS011;36256;42.154;23.002;2022-10-23T07:23:38;29.30;;;19.42;;
36629;SDS011;36256;42.154;23.002;2022-10-23T07:26:05;35.55;;;18.23;;
36629;SDS011;36256;42.154;23.002;2022-10-23T07:28:39;26.20;;;18.60;;
36629;SDS011;36256;42.154;23.002;2022-10-23T07:33:33;22.65;;;15.15;;
36629;SDS011;36256;42.154;23.002;2022-10-23T07:35:59;23.50;;;15.50;;
36629;SDS011;36256;42.154;23.002;2022-10-23T07:38:28;24.88;;;15.13;;
36629;SDS011;36256;42.154;23.002;2022-10-23T07:40:55;24.07;;;15.27;;
36629;SDS011;36256;42.154;23.002;2022-10-23T07:43:24;31.27;;;19.13;;
36629;SDS011;36256;42.154;23.002;2022-10-23T07:45:52;29.83;;;20.02;;
36629;SDS011;36256;42.154;23.002;2022-10-23T07:48:19;33.85;;;22.42;;
36629;SDS011;36256;42.154;23.002;2022-10-23T07:50:46;26.00;;;16.58;;
36629;SDS011;36256;42.154;23.002;2022-10-23T07:53:15;29.43;;;17.60;;
36629;SDS011;36256;42.154;23.002;2022-10-23T07:55:50;16.48;;;12.30;;
36629;SDS011;36256;42.154;23.002;2022-10-23T07:58:19;16.85;;;11.88;;
36629;SDS011;36256;42.154;23.002;2022-10-23T08:00:47;18.05;;;10.98;;
36629;SDS011;36256;42.154;23.002;2022-10-23T08:03:24;18.15;;;10.90;;
36629;SDS011;36256;42.154;23.002;2022-10-23T08:05:52;15.75;;;11.30;;
36629;SDS011;36256;42.154;23.002;2022-10-23T08:08:20;15.90;;;10.93;;
36629;SDS011;36256;42.154;23.002;2022-10-23T08:10:48;18.90;;;11.27;;
36629;SDS011;36256;42.154;23.002;2022-10-23T08:13:15;16.27;;;10.82;;
36629;SDS011;36256;42.154;23.002;2022-10-23T08:15:45;17.38;;;10.88;;
36629;SDS011;36256;42.154;23.002;2022-10-23T08:18:13;16.80;;;10.90;;
36629;SDS011;36256;42.154;23.002;2022-10-23T08:23:08;21.88;;;10.57;;
36629;SDS011;36256;42.154;23.002;2022-10-23T08:25:37;18.45;;;10.45;;
36629;SDS011;36256;42.154;23.002;2022-10-23T08:28:05;21.95;;;11.63;;
36629;SDS011;36256;42.154;23.002;2022-10-23T08:30:33;18.85;;;11.32;;
36629;SDS011;36256;42.154;23.002;2022-10-23T08:33:04;20.30;;;11.98;;
36629;SDS011;36256;42.154;23.002;2022-10-23T08:35:35;20.05;;;9.63;;
36629;SDS011;36256;42.154;23.002;2022-10-23T08:38:03;15.35;;;8.75;;
36629;SDS011;36256;42.154;23.002;2022-10-23T08:40:30;15.23;;;8.50;;
36629;SDS011;36256;42.154;23.002;2022-10-23T08:43:00;13.82;;;8.00;;
36629;SDS011;36256;42.154;23.002;2022-10-23T08:45:45;11.55;;;7.03;;
36629;SDS011;36256;42.154;23.002;2022-10-23T08:48:23;13.20;;;7.28;;
36629;SDS011;36256;42.154;23.002;2022-10-23T08:50:56;13.68;;;7.38;;
36629;SDS011;36256;42.154;23.002;2022-10-23T08:56:02;13.75;;;7.57;;
36629;SDS011;36256;42.154;23.002;2022-10-23T09:01:01;10.52;;;6.15;;
36629;SDS011;36256;42.154;23.002;2022-10-23T09:03:43;11.55;;;5.93;;
36629;SDS011;36256;42.154;23.002;2022-10-23T09:06:24;13.52;;;5.78;;
36629;SDS011;36256;42.154;23.002;2022-10-23T09:12:07;11.05;;;5.05;;
36629;SDS011;36256;42.154;23.002;2022-10-23T09:17:55;22.48;;;5.80;;
36629;SDS011;36256;42.154;23.002;2022-10-23T09:20:26;13.10;;;5.75;;
36629;SDS011;36256;42.154;23.002;2022-10-23T09:22:57;11.85;;;5.97;;
36629;SDS011;36256;42.154;23.002;2022-10-23T09:25:28;14.15;;;5.53;;
36629;SDS011;36256;42.154;23.002;2022-10-23T09:27:59;14.30;;;5.40;;
36629;SDS011;36256;42.154;23.002;2022-10-23T09:33:14;11.98;;;5.90;;
36629;SDS011;36256;42.154;23.002;2022-10-23T09:35:55;11.60;;;5.40;;
36629;SDS011;36256;42.154;23.002;2022-10-23T09:41:12;13.63;;;5.60;;
36629;SDS011;36256;42.154;23.002;2022-10-23T09:43:44;10.40;;;4.63;;
36629;SDS011;36256;42.154;23.002;2022-10-23T09:48:38;11.32;;;5.30;;
36629;SDS011;36256;42.154;23.002;2022-10-23T09:51:20;9.60;;;4.65;;
36629;SDS011;36256;42.154;23.002;2022-10-23T09:53:48;8.02;;;4.22;;
36629;SDS011;36256;42.154;23.002;2022-10-23T09:58:57;9.18;;;4.20;;
36629;SDS011;36256;42.154;23.002;2022-10-23T10:01:28;8.40;;;3.90;;
36629;SDS011;36256;42.154;23.002;2022-10-23T10:04:01;7.38;;;3.92;;
36629;SDS011;36256;42.154;23.002;2022-10-23T10:06:31;12.55;;;4.45;;
36629;SDS011;36256;42.154;23.002;2022-10-23T10:08:59;9.63;;;4.10;;
36629;SDS011;36256;42.154;23.002;2022-10-23T10:11:34;10.73;;;4.47;;
36629;SDS011;36256;42.154;23.002;2022-10-23T10:14:22;7.35;;;4.03;;
36629;SDS011;36256;42.154;23.002;2022-10-23T10:25:36;8.05;;;4.07;;
36629;SDS011;36256;42.154;23.002;2022-10-23T10:36:18;8.95;;;3.85;;
36629;SDS011;36256;42.154;23.002;2022-10-23T10:39:17;20.13;;;4.70;;
36629;SDS011;36256;42.154;23.002;2022-10-23T10:46:59;8.65;;;4.07;;
36629;SDS011;36256;42.154;23.002;2022-10-23T10:52:33;10.20;;;3.63;;
36629;SDS011;36256;42.154;23.002;2022-10-23T10:57:48;7.40;;;3.85;;
36629;SDS011;36256;42.154;23.002;2022-10-23T11:00:22;8.70;;;3.50;;
36629;SDS011;36256;42.154;23.002;2022-10-23T11:08:00;11.20;;;3.78;;
36629;SDS011;36256;42.154;23.002;2022-10-23T11:10:32;7.32;;;3.50;;
36629;SDS011;36256;42.154;23.002;2022-10-23T11:13:01;10.70;;;3.67;;
36629;SDS011;36256;42.154;23.002;2022-10-23T11:15:33;13.88;;;3.90;;
36629;SDS011;36256;42.154;23.002;2022-10-23T11:18:11;5.90;;;3.58;;
36629;SDS011;36256;42.154;23.002;2022-10-23T11:24:01;14.30;;;4.15;;
36629;SDS011;36256;42.154;23.002;2022-10-23T11:37:21;6.85;;;3.72;;
36629;SDS011;36256;42.154;23.002;2022-10-23T11:42:32;10.07;;;3.28;;
36629;SDS011;36256;42.154;23.002;2022-10-23T11:50:26;6.32;;;3.85;;
36629;SDS011;36256;42.154;23.002;2022-10-23T11:52:56;11.50;;;4.03;;
36629;SDS011;36256;42.154;23.002;2022-10-23T11:55:54;9.02;;;3.67;;
36629;SDS011;36256;42.154;23.002;2022-10-23T11:58:49;7.43;;;3.53;;
36629;SDS011;36256;42.154;23.002;2022-10-23T12:01:41;10.65;;;3.28;;
36629;SDS011;36256;42.154;23.002;2022-10-23T12:06:41;9.02;;;3.40;;
36629;SDS011;36256;42.154;23.002;2022-10-23T12:09:45;10.82;;;3.53;;
36629;SDS011;36256;42.154;23.002;2022-10-23T12:12:13;8.40;;;3.78;;
36629;SDS011;36256;42.154;23.002;2022-10-23T12:14:48;5.78;;;3.28;;
36629;SDS011;36256;42.154;23.002;2022-10-23T12:19:49;6.55;;;3.20;;
36629;SDS011;36256;42.154;23.002;2022-10-23T12:22:20;8.73;;;3.60;;
36629;SDS011;36256;42.154;23.002;2022-10-23T12:27:44;9.63;;;3.28;;
36629;SDS011;36256;42.154;23.002;2022-10-23T12:38:15;7.55;;;3.28;;
36629;SDS011;36256;42.154;23.002;2022-10-23T12:40:49;11.32;;;3.72;;
36629;SDS011;36256;42.154;23.002;2022-10-23T12:43:27;7.25;;;3.35;;
36629;SDS011;36256;42.154;23.002;2022-10-23T12:46:00;7.85;;;3.38;;
36629;SDS011;36256;42.154;23.002;2022-10-23T12:48:50;6.88;;;3.40;;
36629;SDS011;36256;42.154;23.002;2022-10-23T12:51:21;7.60;;;3.15;;
36629;SDS011;36256;42.154;23.002;2022-10-23T12:53:49;10.15;;;3.55;;
36629;SDS011;36256;42.154;23.002;2022-10-23T12:56:16;9.70;;;3.50;;
36629;SDS011;36256;42.154;23.002;2022-10-23T12:58:44;6.85;;;3.65;;
36629;SDS011;36256;42.154;23.002;2022-10-23T13:01:49;7.57;;;3.30;;
36629;SDS011;36256;42.154;23.002;2022-10-23T13:06:36;7.22;;;3.30;;
36629;SDS011;36256;42.154;23.002;2022-10-23T13:09:05;10.35;;;3.67;;
36629;SDS011;36256;42.154;23.002;2022-10-23T13:11:40;7.50;;;3.88;;
36629;SDS011;36256;42.154;23.002;2022-10-23T13:14:23;10.50;;;3.75;;
36629;SDS011;36256;42.154;23.002;2022-10-23T13:17:02;8.90;;;3.70;;
36629;SDS011;36256;42.154;23.002;2022-10-23T13:19:31;6.68;;;3.15;;
36629;SDS011;36256;42.154;23.002;2022-10-23T13:21:59;7.22;;;3.72;;
36629;SDS011;36256;42.154;23.002;2022-10-23T13:24:28;5.45;;;3.30;;
36629;SDS011;36256;42.154;23.002;2022-10-23T13:26:56;6.63;;;3.50;;
36629;SDS011;36256;42.154;23.002;2022-10-23T13:31:55;6.03;;;3.15;;
36629;SDS011;36256;42.154;23.002;2022-10-23T13:34:24;8.88;;;2.13;;
36629;SDS011;36256;42.154;23.002;2022-10-23T13:39:22;5.68;;;1.95;;
36629;SDS011;36256;42.154;23.002;2022-10-23T13:41:59;3.67;;;1.90;;
36629;SDS011;36256;42.154;23.002;2022-10-23T13:44:35;3.25;;;2.10;;
36629;SDS011;36256;42.154;23.002;2022-10-23T13:47:03;3.15;;;1.73;;
36629;SDS011;36256;42.154;23.002;2022-10-23T13:49:30;7.20;;;1.92;;
36629;SDS011;36256;42.154;23.002;2022-10-23T13:52:00;2.97;;;1.70;;
36629;SDS011;36256;42.154;23.002;2022-10-23T13:54:27;6.50;;;2.10;;
36629;SDS011;36256;42.154;23.002;2022-10-23T13:56:54;3.47;;;1.90;;
36629;SDS011;36256;42.154;23.002;2022-10-23T13:59:22;2.78;;;2.17;;
36629;SDS011;36256;42.154;23.002;2022-10-23T14:04:16;7.60;;;4.03;;
36629;SDS011;36256;42.154;23.002;2022-10-23T14:06:43;7.85;;;1.83;;
36629;SDS011;36256;42.154;23.002;2022-10-23T14:09:11;2.72;;;1.73;;
36629;SDS011;36256;42.154;23.002;2022-10-23T14:11:43;6.43;;;2.20;;
36629;SDS011;36256;42.154;23.002;2022-10-23T14:16:36;3.25;;;1.90;;
36629;SDS011;36256;42.154;23.002;2022-10-23T14:19:03;2.78;;;1.88;;
36629;SDS011;36256;42.154;23.002;2022-10-23T14:21:29;3.55;;;1.50;;
36629;SDS011;36256;42.154;23.002;2022-10-23T14:23:56;5.15;;;1.95;;
36629;SDS011;36256;42.154;23.002;2022-10-23T14:26:23;3.15;;;2.10;;
36629;SDS011;36256;42.154;23.002;2022-10-23T14:28:53;8.52;;;2.38;;
36629;SDS011;36256;42.154;23.002;2022-10-23T14:31:22;4.97;;;2.28;;
36629;SDS011;36256;42.154;23.002;2022-10-23T14:33:52;4.82;;;2.60;;
36629;SDS011;36256;42.154;23.002;2022-10-23T14:36:21;3.75;;;2.40;;
36629;SDS011;36256;42.154;23.002;2022-10-23T14:41:20;19.15;;;11.95;;
36629;SDS011;36256;42.154;23.002;2022-10-23T14:43:47;8.45;;;5.30;;
36629;SDS011;36256;42.154;23.002;2022-10-23T14:46:14;9.38;;;3.45;;
36629;SDS011;36256;42.154;23.002;2022-10-23T14:48:42;22.75;;;9.60;;
36629;SDS011;36256;42.154;23.002;2022-10-23T14:51:14;28.02;;;11.43;;
36629;SDS011;36256;42.154;23.002;2022-10-23T14:53:43;31.60;;;11.50;;
36629;SDS011;36256;42.154;23.002;2022-10-23T14:56:10;37.15;;;11.88;;
36629;SDS011;36256;42.154;23.002;2022-10-23T14:58:37;34.78;;;12.52;;
36629;SDS011;36256;42.154;23.002;2022-10-23T15:01:03;30.92;;;12.35;;
36629;SDS011;36256;42.154;23.002;2022-10-23T15:03:30;40.97;;;13.07;;
36629;SDS011;36256;42.154;23.002;2022-10-23T15:05:57;31.27;;;14.25;;
36629;SDS011;36256;42.154;23.002;2022-10-23T15:08:24;35.70;;;16.17;;
36629;SDS011;36256;42.154;23.002;2022-10-23T15:10:50;33.00;;;16.23;;
36629;SDS011;36256;42.154;23.002;2022-10-23T15:13:17;29.08;;;14.48;;
36629;SDS011;36256;42.154;23.002;2022-10-23T15:15:43;25.90;;;8.77;;
36629;SDS011;36256;42.154;23.002;2022-10-23T15:18:10;25.30;;;8.23;;
36629;SDS011;36256;42.154;23.002;2022-10-23T15:20:37;28.90;;;15.23;;
36629;SDS011;36256;42.154;23.002;2022-10-23T15:23:03;25.48;;;12.90;;
36629;SDS011;36256;42.154;23.002;2022-10-23T15:25:30;15.88;;;9.13;;
36629;SDS011;36256;42.154;23.002;2022-10-23T15:27:56;12.50;;;6.80;;
36629;SDS011;36256;42.154;23.002;2022-10-23T15:30:23;11.00;;;5.93;;
36629;SDS011;36256;42.154;23.002;2022-10-23T15:32:49;15.60;;;5.65;;
36629;SDS011;36256;42.154;23.002;2022-10-23T15:35:16;12.77;;;4.07;;
36629;SDS011;36256;42.154;23.002;2022-10-23T15:37:43;8.82;;;3.80;;
36629;SDS011;36256;42.154;23.002;2022-10-23T15:40:10;6.88;;;2.72;;
36629;SDS011;36256;42.154;23.002;2022-10-23T15:42:37;9.63;;;3.17;;
36629;SDS011;36256;42.154;23.002;2022-10-23T15:45:03;7.05;;;3.25;;
36629;SDS011;36256;42.154;23.002;2022-10-23T15:47:30;8.30;;;3.63;;
36629;SDS011;36256;42.154;23.002;2022-10-23T15:49:57;6.03;;;2.88;;
36629;SDS011;36256;42.154;23.002;2022-10-23T15:52:23;5.75;;;2.92;;
36629;SDS011;36256;42.154;23.002;2022-10-23T15:54:50;5.25;;;2.53;;
36629;SDS011;36256;42.154;23.002;2022-10-23T15:57:16;5.85;;;2.20;;
36629;SDS011;36256;42.154;23.002;2022-10-23T15:59:43;3.33;;;1.85;;
36629;SDS011;36256;42.154;23.002;2022-10-23T16:02:10;4.78;;;2.10;;
36629;SDS011;36256;42.154;23.002;2022-10-23T16:07:03;5.65;;;2.17;;
36629;SDS011;36256;42.154;23.002;2022-10-23T16:09:30;5.55;;;1.98;;
36629;SDS011;36256;42.154;23.002;2022-10-23T16:11:58;3.80;;;1.83;;
36629;SDS011;36256;42.154;23.002;2022-10-23T16:14:24;4.32;;;1.77;;
36629;SDS011;36256;42.154;23.002;2022-10-23T16:16:51;5.37;;;2.03;;
36629;SDS011;36256;42.154;23.002;2022-10-23T16:19:18;10.50;;;5.50;;
36629;SDS011;36256;42.154;23.002;2022-10-23T16:21:44;7.05;;;5.05;;
36629;SDS011;36256;42.154;23.002;2022-10-23T16:24:11;13.73;;;6.43;;
36629;SDS011;36256;42.154;23.002;2022-10-23T16:26:37;9.15;;;4.20;;
36629;SDS011;36256;42.154;23.002;2022-10-23T16:29:05;5.25;;;2.35;;
36629;SDS011;36256;42.154;23.002;2022-10-23T16:31:33;4.57;;;1.90;;
36629;SDS011;36256;42.154;23.002;2022-10-23T16:34:15;3.17;;;1.85;;
36629;SDS011;36256;42.154;23.002;2022-10-23T16:36:41;5.18;;;2.85;;
36629;SDS011;36256;42.154;23.002;2022-10-23T16:42:15;2.67;;;1.70;;
36629;SDS011;36256;42.154;23.002;2022-10-23T16:47:09;4.10;;;1.73;;
36629;SDS011;36256;42.154;23.002;2022-10-23T16:49:36;5.13;;;4.13;;
36629;SDS011;36256;42.154;23.002;2022-10-23T16:52:02;4.63;;;2.23;;
36629;SDS011;36256;42.154;23.002;2022-10-23T16:54:29;5.35;;;1.90;;
36629;SDS011;36256;42.154;23.002;2022-10-23T16:56:56;6.00;;;1.90;;